Time;durP1;ratioP1;P1;durP2;ratioP2;P2;SDS_P1;SDS_P2;PMS_P1;PMS_P2;Temp;Humidity;BMP_temperature;BMP_pressure;BME280_temperature;BME280_humidity;BME280_pressure;Samples;Min_cycle;Max_cycle;Signal;HPM_P1;HPM_P2
2021/09/21 00:00:07;;;;;;;12.32;7.18;;;;;;;12.39;89.60;99700.66;5076665;28;20044;-82
2021/09/21 00:02:33;;;;;;;8.40;6.50;;;;;;;12.29;89.91;99697.34;5076754;28;20106;-82
2021/09/21 00:05:00;;;;;;;11.05;6.63;;;;;;;12.45;89.48;99712.72;5076492;28;20442;-82
2021/09/21 00:07:27;;;;;;;8.95;6.72;;;;;;;12.42;88.86;99709.50;5076494;28;20053;-82
2021/09/21 00:09:54;;;;;;;8.73;6.45;;;;;;;12.29;89.65;99697.34;5056857;28;20049;-82
2021/09/21 00:12:21;;;;;;;9.93;6.93;;;;;;;12.24;87.76;99713.41;5067799;28;20106;-82
2021/09/21 00:14:49;;;;;;;10.20;6.35;;;;;;;12.42;85.50;99712.22;5076089;28;20097;-82
2021/09/21 00:17:16;;;;;;;8.15;6.72;;;;;;;12.51;84.74;99713.84;5076555;28;20040;-82
2021/09/21 00:19:43;;;;;;;11.13;6.38;;;;;;;12.41;85.11;99714.13;5076648;28;20044;-82
2021/09/21 00:22:09;;;;;;;9.32;5.72;;;;;;;12.44;84.65;99702.00;5076497;28;20110;-82
2021/09/21 00:24:36;;;;;;;11.25;7.00;;;;;;;12.49;86.85;99708.59;5076208;28;20098;-82
2021/09/21 00:27:03;;;;;;;9.45;6.53;;;;;;;12.39;89.50;99722.50;5076423;28;20102;-83
2021/09/21 00:29:30;;;;;;;9.40;6.65;;;;;;;12.21;90.26;99720.06;5076280;28;20098;-82
2021/09/21 00:32:00;;;;;;;11.05;6.32;;;;;;;12.34;90.68;99724.91;5075965;28;20129;-82
2021/09/21 00:34:37;;;;;;;9.70;6.43;;;;;;;12.30;90.27;99714.53;5076127;28;20049;-82
2021/09/21 00:37:04;;;;;;;9.38;6.60;;;;;;;12.17;87.71;99702.38;5075708;28;20052;-82
2021/09/21 00:39:31;;;;;;;10.65;7.18;;;;;;;12.36;88.55;99730.16;5076374;28;20609;-82
2021/09/21 00:41:58;;;;;;;8.32;6.85;;;;;;;12.39;88.18;99727.09;5076119;28;20114;-82
2021/09/21 00:44:25;;;;;;;10.00;6.78;;;;;;;12.25;87.38;99719.72;5075589;28;20641;-82
2021/09/21 00:46:52;;;;;;;9.70;6.35;;;;;;;12.39;86.12;99729.81;5076041;28;20049;-82
2021/09/21 00:49:20;;;;;;;13.30;8.13;;;;;;;12.21;86.70;99714.63;5075916;28;20048;-82
2021/09/21 00:51:47;;;;;;;11.30;7.63;;;;;;;12.20;85.98;99715.63;5075728;28;20059;-82
2021/09/21 00:54:14;;;;;;;10.15;7.18;;;;;;;12.41;86.00;99735.09;5075847;28;20052;-82
2021/09/21 00:56:41;;;;;;;9.30;7.30;;;;;;;12.22;87.96;99720.91;5075433;28;20056;-82
2021/09/21 00:59:08;;;;;;;10.18;6.85;;;;;;;12.26;88.14;99708.63;5075633;28;20109;-82
2021/09/21 01:01:35;;;;;;;8.98;6.88;;;;;;;12.21;89.53;99720.06;5075652;28;20049;-82
2021/09/21 01:04:05;;;;;;;10.05;6.45;;;;;;;12.04;88.35;99708.44;5075376;28;20121;-82
2021/09/21 01:06:33;;;;;;;16.55;7.47;;;;;;;12.06;87.34;99711.00;5075520;28;20055;-82
2021/09/21 01:09:17;;;;;;;11.27;6.68;;;;;;;12.11;86.89;99732.25;5075408;28;20045;-82
2021/09/21 01:11:46;;;;;;;12.98;8.07;;;;;;;12.14;87.06;99730.00;5062475;28;20079;-83
2021/09/21 01:14:14;;;;;;;9.13;6.68;;;;;;;12.15;87.41;99725.38;5074801;28;20049;-82
2021/09/21 01:16:41;;;;;;;7.75;6.38;;;;;;;12.12;88.06;99721.16;5074585;28;20041;-82
2021/09/21 01:19:10;;;;;;;8.88;6.65;;;;;;;12.21;89.21;99730.13;5074830;28;20053;-82
2021/09/21 01:21:39;;;;;;;9.10;6.82;;;;;;;12.16;88.86;99730.69;5074983;28;20451;-81
2021/09/21 01:24:06;;;;;;;10.00;6.50;;;;;;;12.22;88.70;99734.53;5074996;28;20059;-82
2021/09/21 01:26:33;;;;;;;13.13;7.28;;;;;;;12.18;87.03;99723.16;5074663;28;20066;-83
2021/09/21 01:28:59;;;;;;;11.98;7.43;;;;;;;12.16;86.45;99733.41;5074840;28;20110;-81
2021/09/21 01:31:26;;;;;;;8.48;6.50;;;;;;;12.11;86.60;99730.34;5075044;28;20094;-82
2021/09/21 01:33:54;;;;;;;8.93;7.13;;;;;;;12.13;86.48;99732.91;5073955;28;20049;-83
2021/09/21 01:36:22;;;;;;;11.05;7.10;;;;;;;12.12;86.94;99723.88;5073285;28;20097;-82
2021/09/21 01:38:50;;;;;;;9.02;6.82;;;;;;;12.18;87.41;99722.31;5073680;28;20657;-82
2021/09/21 01:41:18;;;;;;;9.75;7.32;;;;;;;12.19;86.30;99729.44;5072435;28;20048;-82
2021/09/21 01:43:47;;;;;;;9.30;7.03;;;;;;;12.06;87.52;99730.06;5073636;28;20072;-82
2021/09/21 01:46:17;;;;;;;8.30;6.68;;;;;;;12.14;87.58;99746.34;5072949;28;20476;-82
2021/09/21 01:48:44;;;;;;;15.27;6.97;;;;;;;12.13;87.74;99736.47;5073434;28;20098;-82
2021/09/21 01:51:15;;;;;;;9.10;6.75;;;;;;;12.07;87.69;99731.75;5073927;28;20287;-82
2021/09/21 01:53:46;;;;;;;10.00;6.75;;;;;;;12.03;86.81;99739.44;5074160;28;20392;-82
2021/09/21 01:59:00;;;;;;;12.00;6.95;;;;;;;11.94;87.85;99735.06;5045200;28;20053;-82
2021/09/21 02:01:29;;;;;;;9.65;7.10;;;;;;;11.88;88.29;99730.31;5054321;28;20102;-81
2021/09/21 02:03:57;;;;;;;8.38;6.50;;;;;;;11.92;88.22;99747.16;5054875;28;20609;-82
2021/09/21 02:06:33;;;;;;;10.73;8.00;;;;;;;11.87;87.77;99753.97;5053925;28;20099;-82
2021/09/21 02:08:59;;;;;;;10.27;6.82;;;;;;;11.78;89.18;99754.22;5066126;28;20056;-82
2021/09/21 02:11:28;;;;;;;10.18;7.70;;;;;;;11.77;88.21;99745.19;5074138;28;20082;-82
2021/09/21 02:13:57;;;;;;;9.85;6.97;;;;;;;11.64;88.64;99734.03;5073952;28;20102;-82
2021/09/21 02:16:24;;;;;;;10.50;8.43;;;;;;;11.64;88.22;99737.59;5072397;28;20048;-81
2021/09/21 02:18:51;;;;;;;13.15;7.65;;;;;;;11.54;88.42;99731.50;5072878;28;20040;-81
2021/09/21 02:21:18;;;;;;;11.73;7.88;;;;;;;11.73;87.56;99735.69;5073330;28;20095;-82
2021/09/21 02:23:45;;;;;;;10.18;7.38;;;;;;;11.72;87.49;99723.06;5073302;28;20040;-81
2021/09/21 02:26:12;;;;;;;9.63;7.10;;;;;;;11.66;87.48;99727.34;5070504;28;20629;-81
2021/09/21 02:28:40;;;;;;;10.95;6.93;;;;;;;11.76;87.57;99746.22;5074510;28;20052;-82
2021/09/21 02:31:07;;;;;;;10.30;7.20;;;;;;;11.74;87.20;99737.34;5076024;28;20106;-82
2021/09/21 02:33:34;;;;;;;9.80;7.35;;;;;;;11.50;89.34;99741.91;5075613;28;20040;-82
2021/09/21 02:36:00;;;;;;;10.10;6.97;;;;;;;11.61;88.67;99740.66;5075713;28;20044;-82
2021/09/21 02:38:27;;;;;;;10.73;7.53;;;;;;;11.55;89.34;99744.09;5076091;28;20117;-82
2021/09/21 02:40:54;;;;;;;10.60;7.75;;;;;;;11.57;90.62;99747.50;5073711;28;20102;-82
2021/09/21 02:43:21;;;;;;;9.55;7.30;;;;;;;11.52;92.86;99752.63;5073743;28;20094;-82
2021/09/21 02:45:49;;;;;;;9.07;7.15;;;;;;;11.44;94.07;99761.69;5073376;28;20052;-82
2021/09/21 02:48:16;;;;;;;11.63;7.43;;;;;;;11.24;93.21;99744.06;5053964;28;20049;-81
2021/09/21 02:50:43;;;;;;;11.43;7.75;;;;;;;11.28;91.84;99743.53;5053705;28;20049;-81
2021/09/21 02:53:10;;;;;;;9.60;7.15;;;;;;;11.27;90.33;99752.69;5058266;28;20045;-81
2021/09/21 02:55:37;;;;;;;13.15;7.80;;;;;;;11.25;90.79;99762.09;5073309;28;20049;-81
2021/09/21 02:58:04;;;;;;;10.18;7.72;;;;;;;11.29;90.22;99747.09;5073307;28;20040;-81
2021/09/21 03:00:31;;;;;;;10.65;7.53;;;;;;;11.26;90.38;99753.75;5073717;28;20097;-81
2021/09/21 03:03:03;;;;;;;10.77;7.07;;;;;;;11.33;90.54;99760.16;5073283;28;20541;-81
2021/09/21 03:05:33;;;;;;;11.07;7.78;;;;;;;11.25;90.84;99762.94;5073297;28;20415;-81
2021/09/21 03:08:03;;;;;;;10.38;8.05;;;;;;;11.38;90.30;99758.81;5073873;28;20053;-81
2021/09/21 03:10:41;;;;;;;10.75;8.00;;;;;;;11.33;90.37;99753.88;5053248;28;20056;-81
2021/09/21 03:18:40;;;;;;;12.85;7.78;;;;;;;11.24;91.60;99768.53;5053166;28;20052;-81
2021/09/21 03:21:10;;;;;;;11.35;8.38;;;;;;;11.04;93.16;99760.78;5065143;28;20118;-82
2021/09/21 03:23:36;;;;;;;11.52;7.47;;;;;;;11.10;93.46;99761.97;5073038;28;20102;-81
2021/09/21 03:26:03;;;;;;;12.38;7.50;;;;;;;11.19;92.12;99765.50;5072824;28;20518;-81
2021/09/21 03:28:30;;;;;;;10.02;7.57;;;;;;;11.25;90.67;99781.97;5075378;28;20049;-81
2021/09/21 03:30:57;;;;;;;9.02;7.38;;;;;;;11.13;91.27;99789.66;5077245;28;20475;-82
2021/09/21 03:33:24;;;;;;;10.82;7.70;;;;;;;11.19;91.25;99796.28;5077174;28;20488;-81
2021/09/21 03:35:52;;;;;;;9.75;6.93;;;;;;;11.11;92.06;99790.84;5076536;28;20045;-82
2021/09/21 03:38:19;;;;;;;12.63;8.25;;;;;;;11.30;91.53;99793.19;5077011;28;20052;-82
2021/09/21 03:40:46;;;;;;;10.05;7.18;;;;;;;11.18;92.43;99783.69;5076521;28;20499;-81
2021/09/21 03:43:13;;;;;;;12.07;7.88;;;;;;;11.23;92.20;99791.34;5076396;28;20098;-81
2021/09/21 03:45:40;;;;;;;9.55;7.88;;;;;;;11.23;92.12;99797.66;5076867;28;20056;-81
2021/09/21 03:48:08;;;;;;;10.50;7.85;;;;;;;11.18;92.82;99796.47;5076614;28;20045;-83
2021/09/21 03:50:42;;;;;;;11.65;7.65;;;;;;;11.30;91.79;99795.06;5076867;28;20051;-83
2021/09/21 03:53:10;;;;;;;13.27;7.97;;;;;;;11.25;92.69;99795.59;5076882;28;20053;-83
2021/09/21 03:55:39;;;;;;;11.40;7.75;;;;;;;11.20;93.04;99791.69;5076380;28;20173;-82
2021/09/21 03:58:14;;;;;;;10.95;7.35;;;;;;;11.19;93.31;99793.56;5076331;28;20045;-82
2021/09/21 04:00:41;;;;;;;11.40;7.65;;;;;;;11.26;93.67;99796.44;5077307;28;20062;-82
2021/09/21 04:03:08;;;;;;;11.38;8.02;;;;;;;11.12;94.24;99785.22;5076555;28;20048;-83
2021/09/21 04:05:35;;;;;;;9.98;6.88;;;;;;;11.04;95.02;99787.13;5076106;28;20044;-82
2021/09/21 04:08:02;;;;;;;12.15;8.18;;;;;;;11.03;95.13;99786.28;5076474;28;20532;-82
2021/09/21 04:10:30;;;;;;;18.73;9.32;;;;;;;10.90;94.72;99788.66;5074634;28;20094;-82
2021/09/21 04:12:58;;;;;;;12.88;8.20;;;;;;;10.81;95.04;99774.25;5075313;28;20056;-84
2021/09/21 04:15:25;;;;;;;12.88;7.25;;;;;;;11.04;94.94;99801.59;5073682;28;20060;-82
2021/09/21 04:17:51;;;;;;;10.82;8.00;;;;;;;11.09;93.88;99801.06;5075426;28;20102;-83
2021/09/21 04:20:23;;;;;;;13.15;7.25;;;;;;;11.10;92.49;99787.28;5076167;28;20048;-83
2021/09/21 04:22:50;;;;;;;10.88;8.27;;;;;;;11.08;93.80;99794.78;5076480;28;20048;-83
2021/09/21 04:25:17;;;;;;;12.93;8.60;;;;;;;11.01;93.92;99803.81;5076124;28;20055;-84
2021/09/21 04:27:47;;;;;;;10.75;6.32;;;;;;;10.97;94.79;99809.59;5074441;28;20056;-83
2021/09/21 04:30:18;;;;;;;8.35;6.15;;;;;;;11.02;93.87;99809.09;5074142;28;20048;-83
2021/09/21 04:32:45;;;;;;;9.98;6.63;;;;;;;11.02;94.00;99819.09;5075181;28;20471;-84
2021/09/21 04:35:13;;;;;;;9.43;6.97;;;;;;;11.06;92.93;99817.75;5073988;28;20087;-84
2021/09/21 04:37:40;;;;;;;10.45;6.28;;;;;;;11.06;92.48;99828.63;5074490;28;20040;-84
2021/09/21 04:40:08;;;;;;;8.32;6.55;;;;;;;11.23;92.91;99838.47;5073925;28;20454;-84
2021/09/21 04:42:36;;;;;;;8.32;6.47;;;;;;;11.12;92.77;99845.09;5074346;28;20411;-84
2021/09/21 04:45:05;;;;;;;10.70;6.80;;;;;;;11.23;91.81;99843.03;5074161;28;20125;-84
2021/09/21 04:47:32;;;;;;;9.90;6.60;;;;;;;11.07;92.14;99835.78;5073748;28;20045;-84
2021/09/21 04:49:59;;;;;;;12.48;6.32;;;;;;;11.02;92.89;99849.88;5074183;28;20071;-84
2021/09/21 04:52:26;;;;;;;8.15;6.43;;;;;;;11.02;92.64;99859.91;5074494;28;20045;-84
2021/09/21 04:54:52;;;;;;;15.48;7.45;;;;;;;11.12;93.76;99876.91;5074079;28;20048;-84
2021/09/21 04:57:19;;;;;;;10.02;6.30;;;;;;;11.01;93.92;99866.38;5073974;28;20412;-84
2021/09/21 04:59:46;;;;;;;10.50;6.97;;;;;;;11.07;94.25;99876.59;5074091;28;20040;-84
2021/09/21 05:02:14;;;;;;;11.40;6.70;;;;;;;10.94;94.38;99867.06;5074084;28;20067;-84
2021/09/21 05:04:41;;;;;;;9.55;6.13;;;;;;;11.10;93.14;99885.25;5073100;28;20052;-84
2021/09/21 05:07:08;;;;;;;8.27;5.97;;;;;;;11.23;90.08;99895.63;5074378;28;20048;-84
2021/09/21 05:09:35;;;;;;;10.05;7.07;;;;;;;11.21;90.64;99891.38;5073986;28;20041;-83
2021/09/21 05:12:06;;;;;;;9.18;6.72;;;;;;;11.01;91.53;99878.09;5073663;28;20036;-84
2021/09/21 05:14:33;;;;;;;8.77;6.10;;;;;;;11.13;91.70;99905.84;5073047;28;20051;-82
2021/09/21 05:17:00;;;;;;;9.00;6.78;;;;;;;10.93;91.82;99888.97;5073800;28;20484;-82
2021/09/21 05:19:29;;;;;;;14.70;7.53;;;;;;;11.16;91.11;99922.66;5073809;28;20123;-83
2021/09/21 05:21:55;;;;;;;9.25;6.85;;;;;;;10.97;90.62;99902.09;5072565;28;20650;-83
2021/09/21 05:24:22;;;;;;;8.60;6.53;;;;;;;11.09;90.63;99897.13;5073238;28;20491;-83
2021/09/21 05:26:49;;;;;;;11.32;7.30;;;;;;;11.14;92.11;99915.69;5072655;28;20110;-83
2021/09/21 05:29:16;;;;;;;10.20;6.95;;;;;;;11.08;91.88;99919.94;5074018;28;20056;-83
2021/09/21 05:31:43;;;;;;;13.55;7.70;;;;;;;11.01;91.61;99926.25;5073888;28;20060;-83
2021/09/21 05:34:10;;;;;;;11.98;7.32;;;;;;;11.02;92.34;99915.19;5073114;28;20044;-83
2021/09/21 05:36:38;;;;;;;10.75;6.65;;;;;;;11.11;92.65;99918.75;5072591;28;20051;-83
2021/09/21 05:39:06;;;;;;;9.38;6.63;;;;;;;11.07;93.47;99910.06;5073008;28;20048;-83
2021/09/21 05:41:32;;;;;;;11.48;7.35;;;;;;;11.20;92.65;99916.88;5068130;28;20060;-83
2021/09/21 05:43:59;;;;;;;8.35;6.70;;;;;;;11.20;91.40;99912.31;5072318;28;20463;-83
2021/09/21 05:46:26;;;;;;;8.35;6.50;;;;;;;11.16;91.49;99924.53;5073005;28;20084;-83
2021/09/21 05:48:59;;;;;;;11.15;7.00;;;;;;;11.15;90.72;99923.69;5087529;28;20048;-83
2021/09/21 05:51:26;;;;;;;10.82;6.82;;;;;;;11.17;90.16;99920.81;5072041;28;20224;-82
2021/09/21 05:53:54;;;;;;;14.98;7.07;;;;;;;11.15;89.27;99906.50;5072277;28;20048;-83
2021/09/21 05:56:21;;;;;;;12.48;7.00;;;;;;;11.21;89.70;99905.81;5071677;28;20048;-83
2021/09/21 05:58:48;;;;;;;9.52;6.82;;;;;;;11.41;89.40;99903.59;5078113;28;20110;-83
2021/09/21 06:01:16;;;;;;;13.77;7.22;;;;;;;11.38;87.78;99911.25;5081347;28;20404;-83
2021/09/21 06:03:42;;;;;;;11.38;7.05;;;;;;;11.46;86.54;99922.97;5088307;28;20503;-82
2021/09/21 06:06:12;;;;;;;10.65;6.75;;;;;;;11.59;86.17;99918.88;5075365;28;20147;-83
2021/09/21 06:08:39;;;;;;;10.13;6.88;;;;;;;11.60;84.64;99928.75;5071803;28;20450;-83
2021/09/21 06:11:07;;;;;;;11.88;6.35;;;;;;;11.47;85.90;99918.38;5070538;28;20503;-83
2021/09/21 06:13:34;;;;;;;7.60;6.80;;;;;;;11.62;86.05;99943.91;5072927;28;20048;-84
2021/09/21 06:16:02;;;;;;;11.35;7.10;;;;;;;11.74;85.51;99927.19;5071889;28;20522;-84
2021/09/21 06:18:28;;;;;;;11.73;6.38;;;;;;;11.83;84.44;99945.22;5071973;28;20045;-84
2021/09/21 06:20:55;;;;;;;9.75;6.70;;;;;;;11.73;84.96;99947.25;5072839;28;20048;-84
2021/09/21 06:23:22;;;;;;;9.48;7.03;;;;;;;11.70;86.37;99956.66;5072416;28;20458;-84
2021/09/21 06:25:49;;;;;;;13.80;7.18;;;;;;;11.70;86.60;99945.75;5072376;28;20053;-83
2021/09/21 06:28:18;;;;;;;16.38;7.38;;;;;;;11.77;85.33;99924.97;5071880;28;20499;-83
2021/09/21 06:30:48;;;;;;;10.90;6.90;;;;;;;11.82;85.15;99954.44;5071290;28;20090;-83
2021/09/21 06:33:14;;;;;;;8.95;7.18;;;;;;;11.97;84.93;99960.03;5071176;28;20554;-83
2021/09/21 06:35:41;;;;;;;12.40;6.97;;;;;;;11.81;84.12;99958.16;5071106;28;20049;-83
2021/09/21 06:38:08;;;;;;;8.85;6.70;;;;;;;11.99;84.43;99983.34;5072326;28;20084;-83
2021/09/21 06:40:35;;;;;;;9.93;6.60;;;;;;;12.02;84.00;99971.25;5072538;28;20451;-82
2021/09/21 06:43:02;;;;;;;10.15;7.72;;;;;;;12.13;83.37;99976.31;5072370;28;20223;-83
2021/09/21 06:45:30;;;;;;;11.45;7.13;;;;;;;12.22;82.87;99996.22;5071893;28;20048;-83
2021/09/21 06:47:57;;;;;;;9.52;6.65;;;;;;;12.03;83.72;99995.59;5072430;28;20044;-83
2021/09/21 06:50:24;;;;;;;11.25;7.38;;;;;;;12.00;83.71;99987.78;5071855;28;20317;-82
2021/09/21 06:52:51;;;;;;;11.48;6.78;;;;;;;12.05;83.71;99995.44;5072374;28;20408;-82
2021/09/21 06:55:19;;;;;;;9.10;6.43;;;;;;;12.14;82.98;99986.22;5072434;28;20051;-83
2021/09/21 06:57:50;;;;;;;8.85;6.80;;;;;;;12.25;82.39;100001.31;5071740;28;20052;-82
2021/09/21 07:00:17;;;;;;;11.77;7.10;;;;;;;12.14;82.21;100009.91;5071857;28;20484;-83
2021/09/21 07:02:48;;;;;;;13.55;6.65;;;;;;;12.09;82.01;100020.44;5071920;28;20144;-82
2021/09/21 07:05:15;;;;;;;9.60;6.47;;;;;;;12.05;82.07;100019.97;5074166;28;20047;-82
2021/09/21 07:07:45;;;;;;;10.95;7.00;;;;;;;12.07;82.11;100011.59;5071917;28;20079;-82
2021/09/21 07:10:14;;;;;;;12.43;7.35;;;;;;;12.12;81.65;100010.06;5072135;28;20094;-82
2021/09/21 07:12:41;;;;;;;11.38;7.00;;;;;;;12.14;82.73;100032.53;5071860;28;20051;-82
2021/09/21 07:15:10;;;;;;;8.98;6.15;;;;;;;12.22;81.85;100023.50;5071779;28;20048;-82
2021/09/21 07:17:37;;;;;;;6.97;6.22;;;;;;;12.36;80.47;100033.69;5071802;28;20048;-82
2021/09/21 07:20:07;;;;;;;7.43;5.70;;;;;;;12.35;79.75;100028.41;5071793;28;20045;-82
2021/09/21 07:22:34;;;;;;;12.60;6.82;;;;;;;12.39;78.53;100021.59;5070578;28;20051;-82
2021/09/21 07:25:01;;;;;;;9.98;6.13;;;;;;;12.54;77.91;100040.75;5071359;28;20052;-82
2021/09/21 07:27:28;;;;;;;10.27;6.03;;;;;;;12.57;77.29;100034.97;5071790;28;20062;-82
2021/09/21 07:29:54;;;;;;;9.32;5.60;;;;;;;12.59;77.48;100024.75;5071613;28;20056;-82
2021/09/21 07:32:21;;;;;;;8.55;5.40;;;;;;;12.66;76.64;100039.38;5071632;28;20055;-83
2021/09/21 07:34:48;;;;;;;10.57;5.25;;;;;;;12.74;77.14;100052.13;5071683;28;20067;-82
2021/09/21 07:37:16;;;;;;;7.85;5.75;;;;;;;13.02;75.95;100054.34;5070923;28;20052;-83
2021/09/21 07:39:43;;;;;;;9.25;5.53;;;;;;;12.78;74.96;100028.06;5071287;28;20048;-82
2021/09/21 07:42:10;;;;;;;7.68;5.63;;;;;;;13.08;74.69;100032.69;5071450;28;20052;-83
2021/09/21 07:44:37;;;;;;;9.63;5.22;;;;;;;13.15;74.45;100030.06;5071312;28;20094;-82
2021/09/21 07:47:04;;;;;;;8.27;5.20;;;;;;;13.23;73.09;100026.41;5071880;28;20051;-82
2021/09/21 07:49:31;;;;;;;7.05;5.45;;;;;;;13.37;74.03;100041.19;5071453;28;20048;-82
2021/09/21 07:51:58;;;;;;;9.38;5.47;;;;;;;13.55;71.49;100036.31;5071614;28;20052;-82
2021/09/21 07:54:26;;;;;;;7.30;5.07;;;;;;;13.67;71.51;100047.66;5071550;28;20063;-83
2021/09/21 07:56:54;;;;;;;7.75;5.85;;;;;;;13.82;71.29;100053.16;5070342;28;20060;-83
2021/09/21 07:59:20;;;;;;;11.13;5.00;;;;;;;13.69;70.93;100059.22;5071490;28;20048;-83
2021/09/21 08:01:47;;;;;;;7.68;5.32;;;;;;;13.89;71.94;100077.84;5071390;28;20507;-83
2021/09/21 08:04:14;;;;;;;7.13;5.47;;;;;;;13.80;69.90;100055.22;5071227;28;20056;-83
2021/09/21 08:06:41;;;;;;;6.13;5.15;;;;;;;13.99;70.19;100073.81;5071212;28;20127;-83
2021/09/21 08:09:08;;;;;;;6.85;5.45;;;;;;;14.36;69.60;100060.28;5071751;28;20049;-83
2021/09/21 08:11:36;;;;;;;7.57;6.07;;;;;;;14.52;66.97;100051.91;5071192;28;20247;-80
2021/09/21 08:14:05;;;;;;;8.35;6.07;;;;;;;14.56;66.33;100077.03;5070638;28;20048;-81
2021/09/21 08:16:33;;;;;;;7.70;5.57;;;;;;;14.37;68.35;100052.97;5075045;28;20461;-81
2021/09/21 08:19:00;;;;;;;6.60;5.22;;;;;;;14.70;65.95;100067.13;5074864;28;20045;-81
2021/09/21 08:21:27;;;;;;;10.43;5.90;;;;;;;14.95;65.42;100081.38;5075474;28;20139;-81
2021/09/21 08:23:54;;;;;;;7.45;5.57;;;;;;;14.75;67.05;100058.34;5074916;28;20052;-81
2021/09/21 08:26:21;;;;;;;10.43;5.28;;;;;;;14.95;66.24;100066.81;5074973;28;20645;-81
2021/09/21 08:28:50;;;;;;;7.57;5.15;;;;;;;14.89;65.93;100057.50;5075090;28;20048;-81
2021/09/21 08:31:16;;;;;;;7.25;5.03;;;;;;;14.84;59.78;100070.88;5074084;28;20071;-81
2021/09/21 08:33:43;;;;;;;10.32;5.45;;;;;;;14.95;61.51;100080.50;5075160;28;20049;-81
2021/09/21 08:36:10;;;;;;;9.40;4.97;;;;;;;14.95;63.60;100077.75;5073963;28;20165;-81
2021/09/21 08:38:37;;;;;;;7.55;3.97;;;;;;;14.22;57.72;100074.81;5074681;28;20045;-81
2021/09/21 08:41:07;;;;;;;5.22;4.07;;;;;;;14.50;59.70;100069.56;5073501;28;20396;-81
2021/09/21 08:43:34;;;;;;;6.15;4.43;;;;;;;14.75;60.17;100107.63;5073434;28;20176;-80
2021/09/21 08:46:02;;;;;;;7.15;4.93;;;;;;;14.54;59.62;100097.38;5073621;28;20040;-80
2021/09/21 08:48:32;;;;;;;5.82;4.63;;;;;;;14.53;59.16;100102.03;5074933;28;20142;-80
2021/09/21 08:51:04;;;;;;;5.88;4.30;;;;;;;14.44;59.61;100095.78;5074370;28;20438;-81
2021/09/21 08:53:31;;;;;;;5.30;4.35;;;;;;;14.41;56.94;100098.06;5075210;28;20059;-80
2021/09/21 08:56:01;;;;;;;4.72;4.10;;;;;;;14.49;58.82;100109.72;5074287;28;20450;-80
2021/09/21 08:58:28;;;;;;;8.63;4.22;;;;;;;14.45;58.96;100100.22;5074746;28;20052;-81
2021/09/21 09:00:57;;;;;;;7.55;5.00;;;;;;;14.43;58.27;100096.81;5073316;28;20476;-80
2021/09/21 09:03:28;;;;;;;10.02;5.07;;;;;;;14.34;58.29;100109.72;5073021;28;20078;-82
2021/09/21 09:05:55;;;;;;;6.28;5.00;;;;;;;14.28;60.33;100106.88;5072624;28;20059;-82
2021/09/21 09:08:33;;;;;;;10.23;4.57;;;;;;;14.45;60.57;100102.97;5074484;28;20106;-82
2021/09/21 09:11:14;;;;;;;10.13;4.40;;;;;;;14.47;58.28;100092.66;5090749;28;20044;-83
2021/09/21 09:13:41;;;;;;;6.45;4.13;;;;;;;14.55;56.54;100102.66;5078660;28;20480;-82
2021/09/21 09:16:12;;;;;;;5.25;4.03;;;;;;;14.61;57.87;100109.31;5074675;28;20048;-81
2021/09/21 09:18:46;;;;;;;12.00;4.18;;;;;;;14.76;53.40;100123.00;5074387;28;20178;-81
2021/09/21 09:21:16;;;;;;;5.75;4.30;;;;;;;14.75;54.59;100124.03;5083146;28;20044;-82
2021/09/21 09:23:54;;;;;;;13.43;4.45;;;;;;;14.70;54.16;100119.13;5076243;28;20044;-81
2021/09/21 09:26:24;;;;;;;4.70;3.78;;;;;;;14.74;54.01;100122.31;5054127;28;20378;-81
2021/09/21 09:28:54;;;;;;;6.22;4.38;;;;;;;14.82;54.44;100125.81;5056297;28;20443;-81
2021/09/21 09:31:26;;;;;;;;;;;;;;;14.80;56.19;100116.97;5073436;28;20139;-80
2021/09/21 09:37:17;;;;;;;7.15;4.28;;;;;;;14.72;56.29;100116.19;5052384;28;20170;-81
2021/09/21 09:39:46;;;;;;;5.63;4.20;;;;;;;14.81;55.36;100115.94;5074239;28;20083;-80
2021/09/21 09:42:13;;;;;;;5.85;4.32;;;;;;;14.80;54.86;100108.75;5078557;28;20048;-81
2021/09/21 09:44:42;;;;;;;6.97;4.55;;;;;;;14.62;53.14;100105.56;5075192;28;20484;-81
2021/09/21 09:47:09;;;;;;;10.77;4.45;;;;;;;14.70;53.66;100099.97;5072548;28;20473;-81
2021/09/21 09:49:39;;;;;;;5.80;3.83;;;;;;;14.60;53.27;100102.97;5073052;28;20056;-81
2021/09/21 09:52:09;;;;;;;10.93;4.45;;;;;;;14.55;54.57;100112.78;5075117;28;20048;-81
2021/09/21 09:54:37;;;;;;;5.18;4.50;;;;;;;14.62;55.56;100117.34;5072867;28;20090;-81
2021/09/21 09:57:04;;;;;;;10.15;5.25;;;;;;;14.85;56.86;100111.75;5073096;28;20480;-81
2021/09/21 09:59:35;;;;;;;5.75;4.93;;;;;;;15.01;55.48;100120.81;5073370;28;20051;-81
2021/09/21 10:02:01;;;;;;;7.22;5.22;;;;;;;15.05;58.70;100105.69;5074388;28;20060;-81
2021/09/21 10:04:29;;;;;;;5.57;4.43;;;;;;;15.18;55.76;100133.25;5074073;28;20078;-81
2021/09/21 10:07:00;;;;;;;6.40;4.32;;;;;;;15.09;54.64;100125.34;5072431;28;20055;-81
2021/09/21 10:09:27;;;;;;;11.57;4.47;;;;;;;15.13;54.68;100121.16;5072338;28;20057;-80
2021/09/21 10:11:57;;;;;;;8.13;4.63;;;;;;;15.12;52.51;100131.28;5072634;28;20126;-81
2021/09/21 10:14:26;;;;;;;8.82;5.20;;;;;;;15.08;51.73;100120.91;5072640;28;20547;-81
2021/09/21 10:16:54;;;;;;;6.57;5.17;;;;;;;15.00;51.93;100119.97;5072533;28;20056;-80
2021/09/21 10:19:22;;;;;;;6.68;4.85;;;;;;;14.98;54.16;100143.94;5073003;28;20306;-80
2021/09/21 10:21:51;;;;;;;8.13;5.15;;;;;;;15.06;53.43;100132.06;5072821;28;20044;-81
2021/09/21 10:24:30;;;;;;;7.07;5.15;;;;;;;15.08;54.51;100149.13;5072476;28;20044;-82
2021/09/21 10:27:03;;;;;;;6.67;4.83;;;;;;;15.30;54.22;100144.56;5072256;28;20049;-81
2021/09/21 10:29:30;;;;;;;6.50;4.82;;;;;;;15.12;53.46;100136.75;5072696;28;20056;-81
2021/09/21 10:31:58;;;;;;;7.60;4.85;;;;;;;15.37;55.61;100148.25;5072342;28;20044;-81
2021/09/21 10:34:25;;;;;;;9.20;4.20;;;;;;;15.53;54.26;100149.06;5072365;28;20458;-81
2021/09/21 10:36:54;;;;;;;6.43;5.00;;;;;;;15.40;53.19;100155.22;5071876;28;20068;-81
2021/09/21 10:39:24;;;;;;;6.32;4.53;;;;;;;15.36;54.12;100137.47;5072046;28;20131;-81
2021/09/21 10:41:53;;;;;;;6.20;4.40;;;;;;;15.43;55.37;100132.94;5072679;28;20411;-81
2021/09/21 10:44:21;;;;;;;7.00;5.22;;;;;;;15.46;52.92;100131.69;5071594;28;20047;-81
2021/09/21 10:46:55;;;;;;;7.90;5.47;;;;;;;15.60;54.38;100149.97;5072208;28;20060;-81
2021/09/21 10:49:23;;;;;;;9.32;4.13;;;;;;;15.80;53.17;100136.50;5072398;28;20413;-82
2021/09/21 10:51:52;;;;;;;5.65;4.97;;;;;;;15.79;53.42;100150.41;5072324;28;20048;-82
2021/09/21 10:54:31;;;;;;;5.75;4.30;;;;;;;15.63;52.77;100151.50;5071973;28;20045;-82
2021/09/21 10:57:10;;;;;;;7.70;4.70;;;;;;;15.62;52.63;100152.53;5071802;28;20109;-81
2021/09/21 10:59:37;;;;;;;6.13;4.47;;;;;;;15.72;52.73;100134.72;5071987;28;20049;-81
2021/09/21 11:02:06;;;;;;;6.78;4.03;;;;;;;15.89;52.91;100129.84;5072229;28;20295;-81
2021/09/21 11:04:44;;;;;;;8.77;4.43;;;;;;;15.98;51.63;100138.78;5073173;28;20447;-81
2021/09/21 11:07:13;;;;;;;5.75;4.70;;;;;;;16.12;51.58;100145.25;5092210;28;20044;-81
2021/09/21 11:09:42;;;;;;;8.05;5.45;;;;;;;15.91;52.29;100136.00;5087263;28;20076;-82
2021/09/21 11:12:10;;;;;;;5.65;4.70;;;;;;;16.03;53.65;100143.69;5072273;28;20134;-81
2021/09/21 11:14:38;;;;;;;5.88;4.55;;;;;;;15.98;52.23;100138.78;5071909;28;20051;-81
2021/09/21 11:17:06;;;;;;;8.00;5.10;;;;;;;15.82;53.46;100133.56;5071807;28;20056;-82
2021/09/21 11:19:33;;;;;;;5.85;4.63;;;;;;;15.80;53.66;100138.41;5071426;28;20036;-81
2021/09/21 11:22:02;;;;;;;5.80;4.65;;;;;;;15.79;53.60;100120.25;5071546;28;20094;-81
2021/09/21 11:24:29;;;;;;;8.95;4.95;;;;;;;15.86;53.56;100138.47;5071652;28;20515;-81
2021/09/21 11:27:03;;;;;;;6.28;4.70;;;;;;;16.05;53.80;100126.00;5071726;28;20056;-81
2021/09/21 11:29:30;;;;;;;6.00;5.03;;;;;;;16.40;51.27;100149.94;5072122;28;20129;-81
2021/09/21 11:31:57;;;;;;;7.80;4.53;;;;;;;16.46;51.26;100135.41;5071556;28;20041;-81
2021/09/21 11:34:29;;;;;;;6.47;4.60;;;;;;;16.22;52.12;100134.78;5071386;28;20048;-81
2021/09/21 11:37:01;;;;;;;6.07;4.72;;;;;;;16.30;52.21;100143.94;5071115;28;20466;-81
2021/09/21 11:39:29;;;;;;;7.63;4.63;;;;;;;16.41;52.23;100130.50;5070346;28;20496;-81
2021/09/21 11:41:56;;;;;;;7.75;4.57;;;;;;;16.55;51.52;100128.72;5071604;28;20060;-81